Time;durP1;ratioP1;P1;durP2;ratioP2;P2;SDS_P1;SDS_P2;PMS_P1;PMS_P2;Temp;Humidity;BMP_temperature;BMP_pressure;BME280_temperature;BME280_humidity;BME280_pressure;Samples;Min_cycle;Max_cycle;Signal;HPM_P1;HPM_P2
2021/10/22 00:01:57;;;;;;;29.55;7.65;;;6.00;99.90;;;;;;5073375;28;20040;-68
2021/10/22 00:04:22;;;;;;;30.92;6.95;;;6.00;99.90;;;;;;5073621;28;20029;-68
2021/10/22 00:06:48;;;;;;;32.63;7.88;;;6.00;99.90;;;;;;5072363;28;20028;-68
2021/10/22 00:09:14;;;;;;;29.23;7.43;;;6.00;99.90;;;;;;5072586;28;20024;-68
2021/10/22 00:11:43;;;;;;;32.80;7.63;;;6.00;99.90;;;;;;5073289;28;20032;-68
2021/10/22 00:14:10;;;;;;;32.30;7.25;;;6.00;99.90;;;;;;5073518;28;20020;-68
2021/10/22 00:16:36;;;;;;;25.00;6.22;;;6.00;99.90;;;;;;5073241;28;20094;-68
2021/10/22 00:19:01;;;;;;;27.67;6.85;;;6.00;99.90;;;;;;5073216;28;20461;-68
2021/10/22 00:21:27;;;;;;;36.65;7.18;;;6.10;99.90;;;;;;5073457;28;20040;-68
2021/10/22 00:23:53;;;;;;;27.95;7.70;;;6.10;99.90;;;;;;5073430;28;20474;-68
2021/10/22 00:26:18;;;;;;;39.17;6.53;;;6.00;99.90;;;;;;5072650;28;20049;-68
2021/10/22 00:28:44;;;;;;;31.73;7.43;;;6.00;99.90;;;;;;5072230;28;20051;-68
2021/10/22 00:31:10;;;;;;;28.92;7.03;;;6.10;99.90;;;;;;5073901;28;20032;-68
2021/10/22 00:33:36;;;;;;;23.48;6.10;;;6.00;99.90;;;;;;5073819;28;20023;-68
2021/10/22 00:36:02;;;;;;;32.20;7.70;;;6.00;99.90;;;;;;5076927;28;20032;-68
2021/10/22 00:38:28;;;;;;;28.80;6.10;;;6.10;99.90;;;;;;5076651;28;20386;-68
2021/10/22 00:40:54;;;;;;;27.63;6.50;;;6.10;99.90;;;;;;5076605;28;20029;-68
2021/10/22 00:43:19;;;;;;;27.10;6.45;;;6.10;99.90;;;;;;5076834;28;20036;-68
2021/10/22 00:45:45;;;;;;;33.45;7.00;;;6.20;99.90;;;;;;5074892;28;20052;-68
2021/10/22 00:48:10;;;;;;;27.45;6.55;;;6.30;99.90;;;;;;5076735;28;20029;-68
2021/10/22 00:50:40;;;;;;;25.23;6.25;;;6.30;99.90;;;;;;5076421;28;20462;-68
2021/10/22 00:53:06;;;;;;;32.30;7.50;;;6.20;99.90;;;;;;5075671;28;20526;-68
2021/10/22 00:55:33;;;;;;;24.00;6.47;;;6.20;99.90;;;;;;5076311;28;20374;-68
2021/10/22 00:57:58;;;;;;;23.58;6.13;;;6.10;99.90;;;;;;5076301;28;20097;-68
2021/10/22 01:00:24;;;;;;;30.35;6.38;;;6.10;99.90;;;;;;5076237;28;20470;-68
2021/10/22 01:02:49;;;;;;;26.88;6.35;;;6.00;99.90;;;;;;5076488;28;20032;-68
2021/10/22 01:05:16;;;;;;;25.80;6.00;;;6.10;99.90;;;;;;5076164;28;20028;-68
2021/10/22 01:07:42;;;;;;;29.00;6.47;;;6.00;99.90;;;;;;5076304;28;20106;-68
2021/10/22 01:10:10;;;;;;;23.30;7.00;;;6.10;99.90;;;;;;5076370;28;20365;-68
2021/10/22 01:12:36;;;;;;;27.35;7.35;;;6.10;99.90;;;;;;5076023;28;20027;-68
2021/10/22 01:15:04;;;;;;;29.48;6.88;;;6.20;99.90;;;;;;5075700;28;20419;-68
2021/10/22 01:20:14;;;;;;;24.60;5.78;;;6.30;99.90;;;;;;5091942;28;20382;-68
2021/10/22 01:22:41;;;;;;;27.27;7.15;;;6.40;99.90;;;;;;5091332;28;20036;-68
2021/10/22 01:25:08;;;;;;;27.25;6.43;;;6.40;99.90;;;;;;5089766;28;20024;-69
2021/10/22 01:27:34;;;;;;;29.00;5.65;;;6.40;99.90;;;;;;5091216;28;20012;-68
2021/10/22 01:30:01;;;;;;;33.10;7.10;;;6.40;99.90;;;;;;5091166;28;20114;-67
2021/10/22 01:32:27;;;;;;;25.52;6.20;;;6.40;99.90;;;;;;5091428;28;20100;-68
2021/10/22 01:34:53;;;;;;;25.42;5.88;;;6.40;99.90;;;;;;5091402;28;20347;-68
2021/10/22 01:37:19;;;;;;;24.38;5.70;;;6.30;99.90;;;;;;5091334;28;20095;-68
2021/10/22 01:39:45;;;;;;;24.05;6.30;;;6.30;99.90;;;;;;5091198;28;20412;-68
2021/10/22 01:42:10;;;;;;;20.48;5.88;;;6.30;99.90;;;;;;5091215;28;20024;-68
2021/10/22 01:44:36;;;;;;;26.08;6.28;;;6.30;99.90;;;;;;5091141;28;20031;-68
2021/10/22 01:47:02;;;;;;;26.00;5.60;;;6.30;99.90;;;;;;5090569;28;20025;-68
2021/10/22 01:49:27;;;;;;;25.52;5.65;;;6.30;99.90;;;;;;5090801;28;20474;-68
2021/10/22 01:51:53;;;;;;;21.83;5.75;;;6.30;99.90;;;;;;5089580;28;20027;-68
2021/10/22 01:54:19;;;;;;;22.77;5.35;;;6.30;99.90;;;;;;5091271;28;20033;-68
2021/10/22 01:56:44;;;;;;;25.55;5.53;;;6.30;99.90;;;;;;5072594;28;20028;-68
2021/10/22 01:59:10;;;;;;;24.50;5.53;;;6.30;99.90;;;;;;5090826;28;20025;-68
2021/10/22 02:01:35;;;;;;;26.35;5.13;;;6.30;99.90;;;;;;5090875;28;20070;-68
2021/10/22 02:04:01;;;;;;;27.25;5.72;;;6.40;99.90;;;;;;5090795;28;20055;-68
2021/10/22 02:06:27;;;;;;;26.23;6.15;;;6.40;99.90;;;;;;5088956;28;20020;-68
2021/10/22 02:08:52;;;;;;;29.17;5.82;;;6.40;99.90;;;;;;5090732;28;20031;-68
2021/10/22 02:11:18;;;;;;;22.60;5.15;;;6.40;99.90;;;;;;5090667;28;20458;-68
2021/10/22 02:13:43;;;;;;;17.88;4.60;;;6.40;99.90;;;;;;5089163;28;20103;-68
2021/10/22 02:16:09;;;;;;;26.02;5.43;;;6.40;99.90;;;;;;5090570;28;20024;-68
2021/10/22 02:18:35;;;;;;;21.45;5.13;;;6.40;99.90;;;;;;5090108;28;20044;-67
2021/10/22 02:21:00;;;;;;;20.25;4.78;;;6.40;99.90;;;;;;5088781;28;20028;-67
2021/10/22 02:23:26;;;;;;;21.98;4.57;;;6.40;99.90;;;;;;5090207;28;20025;-68
2021/10/22 02:25:51;;;;;;;29.85;5.68;;;6.40;99.90;;;;;;5090426;28;20027;-68
2021/10/22 02:28:17;;;;;;;23.08;4.45;;;6.40;99.90;;;;;;5090379;28;20024;-68
2021/10/22 02:30:43;;;;;;;26.88;4.70;;;6.40;99.90;;;;;;5080903;28;20020;-68
2021/10/22 02:33:10;;;;;;;18.25;4.05;;;6.50;99.90;;;;;;5076813;28;20031;-68
2021/10/22 02:35:36;;;;;;;26.67;5.40;;;6.40;99.90;;;;;;5076495;28;20393;-68
2021/10/22 02:38:01;;;;;;;21.60;4.40;;;6.40;99.90;;;;;;5076610;28;20112;-68
2021/10/22 02:40:27;;;;;;;23.40;4.60;;;6.40;99.90;;;;;;5076671;28;20052;-68
2021/10/22 02:42:53;;;;;;;18.80;4.82;;;6.50;99.90;;;;;;5075177;28;20461;-68
2021/10/22 02:45:19;;;;;;;17.80;4.93;;;6.60;99.90;;;;;;5076321;28;20082;-68
2021/10/22 02:47:44;;;;;;;22.15;3.97;;;6.60;99.90;;;;;;5076255;28;20028;-68
2021/10/22 02:50:11;;;;;;;19.52;4.45;;;6.70;99.90;;;;;;5075924;28;20425;-68
2021/10/22 02:52:36;;;;;;;20.08;4.72;;;6.70;99.90;;;;;;5076423;28;20017;-68
2021/10/22 02:55:03;;;;;;;19.15;4.22;;;6.70;99.90;;;;;;5076374;28;20051;-68
2021/10/22 02:57:29;;;;;;;18.88;4.65;;;6.80;99.90;;;;;;5075791;28;20048;-68
2021/10/22 02:59:54;;;;;;;17.60;3.88;;;6.80;99.90;;;;;;5076221;28;20048;-68
2021/10/22 03:02:20;;;;;;;14.85;3.70;;;6.90;99.90;;;;;;5076252;28;20024;-68
2021/10/22 03:04:46;;;;;;;18.27;3.92;;;6.90;99.90;;;;;;5075936;28;20103;-68
2021/10/22 03:07:11;;;;;;;17.08;3.75;;;6.90;99.90;;;;;;5075566;28;20025;-68
2021/10/22 03:09:37;;;;;;;16.08;3.53;;;6.80;99.90;;;;;;5076108;28;20086;-68
2021/10/22 03:12:03;;;;;;;16.80;4.05;;;6.80;99.90;;;;;;5076045;28;20129;-68
2021/10/22 03:14:28;;;;;;;17.30;3.83;;;6.80;99.90;;;;;;5075987;28;20032;-68
2021/10/22 03:16:54;;;;;;;20.52;3.60;;;6.80;99.90;;;;;;5075671;28;20025;-68
2021/10/22 03:19:19;;;;;;;24.35;3.63;;;6.80;99.90;;;;;;5074039;28;20079;-68
2021/10/22 03:21:45;;;;;;;19.55;2.95;;;6.80;99.90;;;;;;5075586;28;20067;-68
2021/10/22 03:24:11;;;;;;;23.35;3.90;;;6.80;99.90;;;;;;5075806;28;20025;-68
2021/10/22 03:26:36;;;;;;;19.80;3.65;;;6.70;99.90;;;;;;5075769;28;20017;-68
2021/10/22 03:29:03;;;;;;;13.20;3.47;;;6.70;99.90;;;;;;5075161;28;20035;-68
2021/10/22 03:31:28;;;;;;;13.57;3.55;;;6.70;99.90;;;;;;5075681;28;20040;-68
2021/10/22 03:33:54;;;;;;;16.83;3.65;;;6.80;99.90;;;;;;5073842;28;20402;-67
2021/10/22 03:36:20;;;;;;;15.43;3.67;;;6.70;99.90;;;;;;5057175;28;20508;-67
2021/10/22 03:38:46;;;;;;;23.30;3.85;;;6.80;99.90;;;;;;5075198;28;20029;-68
2021/10/22 03:41:11;;;;;;;20.10;3.97;;;6.70;99.90;;;;;;5074684;28;20016;-68
2021/10/22 03:43:37;;;;;;;24.35;4.32;;;6.70;99.90;;;;;;5074660;28;20393;-66
2021/10/22 03:46:03;;;;;;;19.17;4.20;;;6.60;99.90;;;;;;5075360;28;20031;-67
2021/10/22 03:48:29;;;;;;;16.05;3.47;;;6.60;99.90;;;;;;5075325;28;20032;-67
2021/10/22 03:50:55;;;;;;;18.65;3.70;;;6.60;99.90;;;;;;5074983;28;20024;-67
2021/10/22 03:53:20;;;;;;;15.38;3.67;;;6.60;99.90;;;;;;5075169;28;20482;-67
2021/10/22 03:55:46;;;;;;;19.42;3.53;;;6.60;99.90;;;;;;5073692;28;20039;-67
2021/10/22 03:58:12;;;;;;;26.92;4.25;;;6.60;99.90;;;;;;5075025;28;20036;-67
2021/10/22 04:00:37;;;;;;;16.20;4.10;;;6.50;99.90;;;;;;5075089;28;20020;-67
2021/10/22 04:03:04;;;;;;;20.23;3.58;;;6.60;99.90;;;;;;5075014;28;20025;-67
2021/10/22 04:05:29;;;;;;;14.82;3.80;;;6.50;99.90;;;;;;5074690;28;20104;-67
2021/10/22 04:07:56;;;;;;;18.38;3.55;;;6.50;99.90;;;;;;5074676;28;20041;-67
2021/10/22 04:10:22;;;;;;;18.73;4.10;;;6.50;99.90;;;;;;5074653;28;20012;-67
2021/10/22 04:12:47;;;;;;;18.45;4.07;;;6.60;99.90;;;;;;5074292;28;20027;-66
2021/10/22 04:15:13;;;;;;;13.05;3.60;;;6.60;99.90;;;;;;5074557;28;20095;-67
2021/10/22 04:17:38;;;;;;;19.60;4.13;;;6.50;99.90;;;;;;5074765;28;20357;-67
2021/10/22 04:20:06;;;;;;;13.52;4.13;;;6.50;99.90;;;;;;5073968;28;20037;-67
2021/10/22 04:22:31;;;;;;;15.75;3.58;;;6.40;99.90;;;;;;5074402;28;20389;-67
2021/10/22 04:24:57;;;;;;;17.52;4.50;;;6.50;99.90;;;;;;5074134;28;20028;-67
2021/10/22 04:27:24;;;;;;;22.80;4.80;;;6.50;99.90;;;;;;5074594;28;20029;-67
2021/10/22 04:29:49;;;;;;;21.52;4.13;;;6.50;99.90;;;;;;5074288;28;20054;-66
2021/10/22 04:32:15;;;;;;;21.15;3.85;;;6.50;99.90;;;;;;5074260;28;20020;-67
2021/10/22 04:34:41;;;;;;;17.27;3.60;;;6.60;99.90;;;;;;5073004;28;20025;-67
2021/10/22 04:37:24;;;;;;;16.90;3.58;;;6.50;99.90;;;;;;5074150;28;20033;-66
2021/10/22 04:42:40;;;;;;;19.33;4.68;;;6.50;99.90;;;;;;5073667;28;20059;-66
2021/10/22 04:45:08;;;;;;;11.75;3.95;;;6.50;99.90;;;;;;5056012;28;20020;-67
2021/10/22 04:47:33;;;;;;;24.63;4.35;;;6.40;99.90;;;;;;5072783;28;20025;-67
2021/10/22 04:50:00;;;;;;;22.20;4.47;;;6.40;99.90;;;;;;5056040;28;20025;-66
2021/10/22 04:52:26;;;;;;;14.90;3.35;;;6.30;99.90;;;;;;5072928;28;20054;-67
2021/10/22 04:54:51;;;;;;;18.98;3.85;;;6.40;99.90;;;;;;5072589;28;20529;-66
2021/10/22 04:57:17;;;;;;;22.58;3.85;;;6.40;99.90;;;;;;5073871;28;20378;-66
2021/10/22 04:59:43;;;;;;;12.13;4.40;;;6.40;99.90;;;;;;5073776;28;20082;-66
2021/10/22 05:02:08;;;;;;;19.10;3.30;;;6.40;99.90;;;;;;5073834;28;20417;-67
2021/10/22 05:04:34;;;;;;;15.98;4.10;;;6.40;99.90;;;;;;5072260;28;20051;-67
2021/10/22 05:06:59;;;;;;;19.60;4.70;;;6.40;99.90;;;;;;5073777;28;20039;-67
2021/10/22 05:09:25;;;;;;;14.93;4.10;;;6.40;99.90;;;;;;5072784;28;20029;-67
2021/10/22 05:11:50;;;;;;;13.25;3.38;;;6.40;99.90;;;;;;5074023;28;20485;-67
2021/10/22 05:14:16;;;;;;;14.40;3.60;;;6.40;99.90;;;;;;5073969;28;20466;-67
2021/10/22 05:16:41;;;;;;;18.05;3.38;;;6.50;99.90;;;;;;5072934;28;20040;-66
2021/10/22 05:19:07;;;;;;;12.10;3.03;;;6.50;99.90;;;;;;5055699;28;20051;-67
2021/10/22 05:21:32;;;;;;;15.23;3.20;;;6.50;99.90;;;;;;5073707;28;20027;-66
2021/10/22 05:23:58;;;;;;;20.90;3.72;;;6.50;99.90;;;;;;5073901;28;20103;-66
2021/10/22 05:26:23;;;;;;;17.10;3.67;;;6.50;99.90;;;;;;5072395;28;20017;-67
2021/10/22 05:28:49;;;;;;;18.60;3.70;;;6.50;99.90;;;;;;5073853;28;20029;-67
2021/10/22 05:31:14;;;;;;;25.42;5.22;;;6.60;99.90;;;;;;5072054;28;20024;-66
2021/10/22 05:33:40;;;;;;;11.88;3.13;;;6.60;99.90;;;;;;5055887;28;20040;-67
2021/10/22 05:36:05;;;;;;;16.55;3.15;;;6.70;99.90;;;;;;5073351;28;20082;-66
2021/10/22 05:38:31;;;;;;;18.83;3.60;;;6.70;99.90;;;;;;5073713;28;20028;-66
2021/10/22 05:40:57;;;;;;;14.30;3.55;;;6.90;99.90;;;;;;5074056;28;20336;-67
2021/10/22 05:43:22;;;;;;;10.02;3.08;;;6.90;99.90;;;;;;5073695;28;20458;-67
2021/10/22 05:45:48;;;;;;;13.95;3.70;;;6.80;99.90;;;;;;5071908;28;20025;-67
2021/10/22 05:48:15;;;;;;;17.42;3.45;;;6.80;99.90;;;;;;5072474;28;20020;-66
2021/10/22 05:50:41;;;;;;;12.15;3.17;;;6.70;99.90;;;;;;5072392;28;20482;-67
2021/10/22 05:53:07;;;;;;;15.63;3.70;;;6.70;99.90;;;;;;5072190;28;20390;-67
2021/10/22 05:55:33;;;;;;;24.10;3.80;;;6.70;99.90;;;;;;5072417;28;20024;-67
2021/10/22 05:57:59;;;;;;;16.65;3.10;;;6.70;99.90;;;;;;5072350;28;20487;-66
2021/10/22 06:00:24;;;;;;;16.17;3.42;;;6.70;99.90;;;;;;5072454;28;20056;-68
2021/10/22 06:02:53;;;;;;;13.65;3.40;;;6.80;99.90;;;;;;5073441;28;20054;-67
2021/10/22 06:05:19;;;;;;;22.13;3.90;;;6.70;99.90;;;;;;5073394;28;20073;-67
2021/10/22 06:07:44;;;;;;;14.75;3.40;;;6.70;99.90;;;;;;5075875;28;20028;-67
2021/10/22 06:10:10;;;;;;;14.93;2.83;;;6.80;99.90;;;;;;5077228;28;20032;-67
2021/10/22 06:12:36;;;;;;;15.35;3.67;;;6.90;99.90;;;;;;5076076;28;20028;-67
2021/10/22 06:15:03;;;;;;;18.95;3.00;;;6.80;99.90;;;;;;5074762;28;20025;-67
2021/10/22 06:17:29;;;;;;;18.30;3.67;;;6.90;99.90;;;;;;5075087;28;20393;-67
2021/10/22 06:19:57;;;;;;;15.55;3.38;;;6.90;99.90;;;;;;5074781;28;20037;-67
2021/10/22 06:22:50;;;;;;;18.27;3.25;;;7.00;99.90;;;;;;5076285;28;20024;-67
2021/10/22 06:25:08;;;;;;;19.92;3.95;;;6.90;99.90;;;;;;5074512;28;20452;-68
2021/10/22 06:27:34;;;;;;;17.65;4.03;;;7.00;99.90;;;;;;5076057;28;20025;-67
2021/10/22 06:29:59;;;;;;;20.95;4.60;;;7.00;99.90;;;;;;5074362;28;20090;-68
2021/10/22 06:32:25;;;;;;;23.83;7.15;;;7.20;99.90;;;;;;5075758;28;20045;-68
2021/10/22 06:34:51;;;;;;;15.60;3.40;;;7.30;99.90;;;;;;5071022;28;20402;-69
2021/10/22 06:37:17;;;;;;;14.82;3.85;;;7.30;99.90;;;;;;5076495;28;20474;-68
2021/10/22 06:39:42;;;;;;;14.00;3.08;;;7.30;99.90;;;;;;5066091;28;20060;-68
2021/10/22 06:42:08;;;;;;;15.90;3.42;;;7.50;99.90;;;;;;5073130;28;20047;-67
2021/10/22 06:44:33;;;;;;;15.13;3.08;;;7.70;99.90;;;;;;5069425;28;20075;-68
2021/10/22 06:47:00;;;;;;;14.93;3.67;;;7.90;99.90;;;;;;5065414;28;20553;-68
2021/10/22 06:49:26;;;;;;;13.55;3.25;;;8.00;99.90;;;;;;5075776;28;20043;-69
2021/10/22 06:51:52;;;;;;;19.40;3.67;;;8.20;99.90;;;;;;5065574;28;20107;-68
2021/10/22 06:54:18;;;;;;;12.25;2.85;;;8.50;99.90;;;;;;5087448;28;20453;-69
2021/10/22 06:56:43;;;;;;;18.10;3.95;;;8.80;99.90;;;;;;5077578;28;20040;-68
2021/10/22 06:59:09;;;;;;;13.98;4.03;;;9.00;99.90;;;;;;5065906;28;20035;-68
2021/10/22 07:01:34;;;;;;;15.80;3.55;;;9.10;99.90;;;;;;5069142;28;20073;-69
2021/10/22 07:04:00;;;;;;;10.57;2.90;;;8.80;99.90;;;;;;5070866;28;20063;-68
2021/10/22 07:09:11;;;;;;;16.58;3.67;;;8.10;99.90;;;;;;5066265;28;20091;-68
2021/10/22 07:11:37;;;;;;;19.05;4.07;;;8.00;99.90;;;;;;5069964;28;20071;-68
2021/10/22 07:14:06;;;;;;;18.10;3.80;;;7.90;99.90;;;;;;5063940;28;20028;-68
2021/10/22 07:16:31;;;;;;;14.60;3.35;;;7.90;99.90;;;;;;5069012;28;20055;-68
2021/10/22 07:18:57;;;;;;;13.10;3.70;;;7.80;99.90;;;;;;5064899;28;20048;-68
2021/10/22 07:21:23;;;;;;;16.00;4.15;;;7.90;99.90;;;;;;5066762;28;20016;-68
2021/10/22 07:23:49;;;;;;;14.80;3.65;;;7.90;99.90;;;;;;5061279;28;20429;-68
2021/10/22 07:26:17;;;;;;;19.35;4.45;;;7.90;99.90;;;;;;5074599;28;20067;-68
2021/10/22 07:28:43;;;;;;;22.90;3.58;;;7.90;99.90;;;;;;5070558;28;20112;-68
2021/10/22 07:31:10;;;;;;;11.77;3.65;;;7.90;99.90;;;;;;5073034;28;20103;-68
2021/10/22 07:33:38;;;;;;;14.48;3.65;;;8.00;99.90;;;;;;5057904;28;20024;-68
2021/10/22 07:36:06;;;;;;;15.85;4.22;;;7.90;99.90;;;;;;5061071;28;20033;-68
2021/10/22 07:38:33;;;;;;;16.52;4.10;;;8.20;99.90;;;;;;5070347;28;20056;-68
2021/10/22 07:40:58;;;;;;;12.10;3.08;;;9.10;99.90;;;;;;5071338;28;20025;-69
2021/10/22 07:43:24;;;;;;;26.25;4.68;;;9.90;99.90;;;;;;5065336;28;20355;-69
2021/10/22 07:45:50;;;;;;;16.70;3.63;;;9.80;99.90;;;;;;5065811;28;20398;-69
2021/10/22 07:48:16;;;;;;;14.05;3.70;;;9.10;99.90;;;;;;5055226;28;20025;-69
2021/10/22 07:50:42;;;;;;;17.08;3.38;;;8.80;99.90;;;;;;5067695;28;20036;-69
2021/10/22 07:53:08;;;;;;;16.85;3.45;;;8.90;99.90;;;;;;5064586;28;20024;-69
2021/10/22 07:55:35;;;;;;;14.02;3.92;;;9.70;99.90;;;;;;5072560;28;20078;-70
2021/10/22 07:58:02;;;;;;;15.93;3.53;;;10.00;99.90;;;;;;5068354;28;20079;-69
2021/10/22 08:00:28;;;;;;;11.93;3.33;;;9.50;99.90;;;;;;5073493;28;20016;-70
2021/10/22 08:02:53;;;;;;;15.50;3.88;;;9.60;99.90;;;;;;5070683;28;20013;-70
2021/10/22 08:05:21;;;;;;;16.60;3.47;;;10.40;99.90;;;;;;5072987;28;20093;-70
2021/10/22 08:07:48;;;;;;;17.60;3.75;;;10.70;99.90;;;;;;5069012;28;20102;-70
2021/10/22 08:10:14;;;;;;;12.52;3.63;;;10.30;99.90;;;;;;5056907;28;20159;-69
2021/10/22 08:12:40;;;;;;;15.75;3.85;;;9.60;99.90;;;;;;5056071;28;20525;-70
2021/10/22 08:15:07;;;;;;;17.40;3.75;;;9.60;99.90;;;;;;5076825;28;20389;-69
2021/10/22 08:17:32;;;;;;;20.38;4.18;;;10.00;99.90;;;;;;5060383;28;20035;-70
2021/10/22 08:20:02;;;;;;;17.02;4.00;;;10.20;99.90;;;;;;5069947;28;20501;-70
2021/10/22 08:22:29;;;;;;;17.02;3.53;;;10.00;99.90;;;;;;5075035;28;20487;-70
2021/10/22 08:25:06;;;;;;;20.00;4.03;;;10.10;99.90;;;;;;5071596;28;20062;-70
2021/10/22 08:27:35;;;;;;;17.10;4.07;;;10.00;99.90;;;;;;5070704;28;20017;-70
2021/10/22 08:30:02;;;;;;;17.17;3.20;;;10.50;99.90;;;;;;5058337;28;20036;-69
2021/10/22 08:32:30;;;;;;;24.13;4.53;;;10.60;99.90;;;;;;5068308;28;20389;-70
2021/10/22 08:34:56;;;;;;;15.80;4.25;;;10.70;99.90;;;;;;5071500;28;20024;-69
2021/10/22 08:37:23;;;;;;;13.60;3.05;;;11.00;99.90;;;;;;5067620;28;20025;-69
2021/10/22 08:39:49;;;;;;;17.40;3.90;;;11.00;99.90;;;;;;5070617;28;20423;-69
2021/10/22 08:42:20;;;;;;;18.77;4.18;;;10.90;99.90;;;;;;5071994;28;20025;-69
2021/10/22 08:44:46;;;;;;;13.35;3.80;;;11.30;99.90;;;;;;5073632;28;20024;-69
2021/10/22 08:47:12;;;;;;;16.38;3.70;;;10.30;99.90;;;;;;5073690;28;20127;-67
2021/10/22 08:49:38;;;;;;;17.40;4.07;;;10.60;99.90;;;;;;5067546;28;20048;-68
2021/10/22 08:52:06;;;;;;;15.75;3.88;;;10.90;99.90;;;;;;5062877;28;20111;-68
2021/10/22 08:54:35;;;;;;;14.02;3.33;;;10.60;99.90;;;;;;5069826;28;20099;-68
2021/10/22 08:57:03;;;;;;;13.77;3.20;;;10.70;99.90;;;;;;5054227;28;20401;-69
2021/10/22 08:59:29;;;;;;;18.08;3.72;;;11.30;99.90;;;;;;5069614;28;20025;-68
2021/10/22 09:04:51;;;;;;;11.73;3.47;;;11.50;99.90;;;;;;5102131;27;20429;-69
2021/10/22 09:07:19;;;;;;;15.18;3.25;;;11.30;99.90;;;;;;5090401;28;20046;-69
2021/10/22 09:09:46;;;;;;;22.83;3.75;;;11.50;99.90;;;;;;5088882;28;20027;-69
2021/10/22 09:12:12;;;;;;;12.90;3.88;;;11.70;99.90;;;;;;5081953;28;20309;-69
2021/10/22 09:14:56;;;;;;;14.10;4.13;;;11.50;99.90;;;;;;5078685;28;20504;-68
2021/10/22 09:17:32;;;;;;;;;;;11.50;99.90;;;;;;5084345;28;20047;-69
2021/10/22 09:19:57;;;;;;;10.45;3.20;;;12.00;99.90;;;;;;5088708;28;20301;-68
2021/10/22 09:22:29;;;;;;;14.85;3.88;;;11.70;99.90;;;;;;5089799;28;20044;-68
2021/10/22 09:24:58;;;;;;;12.05;3.58;;;12.10;99.90;;;;;;5088837;28;20029;-68
2021/10/22 09:27:54;;;;;;;14.18;4.07;;;12.00;99.90;;;;;;5090073;28;20024;-69
2021/10/22 09:33:04;;;;;;;22.17;3.95;;;12.10;99.90;;;;;;5094150;27;20372;-69
2021/10/22 09:35:48;;;;;;;12.68;3.28;;;11.90;99.90;;;;;;5090561;28;20389;-70
2021/10/22 09:38:27;;;;;;;12.82;3.10;;;12.00;99.90;;;;;;5093638;28;20039;-70
2021/10/22 09:40:56;;;;;;;13.25;3.40;;;11.90;99.90;;;;;;5089673;28;20055;-69
2021/10/22 09:43:30;;;;;;;16.73;3.85;;;11.90;99.90;;;;;;5098822;28;20410;-71
2021/10/22 09:46:16;;;;;;;13.30;3.40;;;11.80;99.90;;;;;;5093606;28;20106;-71
2021/10/22 09:48:46;;;;;;;13.25;3.03;;;12.50;99.90;;;;;;5097164;28;20546;-71
2021/10/22 09:51:27;;;;;;;13.77;3.35;;;12.60;99.90;;;;;;5098176;28;20029;-70
2021/10/22 09:53:54;;;;;;;14.18;3.53;;;12.50;99.90;;;;;;5098927;28;20465;-69
2021/10/22 09:56:29;;;;;;;16.77;4.30;;;12.40;99.90;;;;;;5093057;28;20024;-69
2021/10/22 09:59:06;;;;;;;17.88;3.58;;;12.10;99.90;;;;;;5090191;28;20103;-70
2021/10/22 10:01:38;;;;;;;12.48;3.53;;;12.40;99.90;;;;;;5093510;28;20027;-70
2021/10/22 10:04:06;;;;;;;17.50;3.35;;;12.60;99.90;;;;;;5090041;28;20035;-70
2021/10/22 10:06:33;;;;;;;20.88;3.63;;;12.20;99.90;;;;;;5089053;28;20103;-70
2021/10/22 10:09:00;;;;;;;15.10;3.65;;;;;;;;;;5117605;28;20032;-68
2021/10/22 10:11:26;;;;;;;15.05;3.55;;;13.00;99.90;;;;;;5092743;28;20031;-69
2021/10/22 10:13:53;;;;;;;13.75;3.38;;;12.50;99.90;;;;;;5101654;28;20081;-68
2021/10/22 10:16:19;;;;;;;14.65;3.42;;;12.30;99.90;;;;;;5092929;28;20031;-69
2021/10/22 10:18:52;;;;;;;14.68;4.07;;;12.00;99.90;;;;;;5090162;28;20032;-69
2021/10/22 10:21:21;;;;;;;15.40;4.43;;;12.40;99.90;;;;;;5089692;28;20070;-69
2021/10/22 10:23:48;;;;;;;14.50;3.92;;;12.40;99.90;;;;;;5090170;28;20078;-68
2021/10/22 10:26:34;;;;;;;11.15;3.33;;;12.10;99.90;;;;;;5088348;28;20497;-69
2021/10/22 10:29:03;;;;;;;17.60;3.67;;;11.80;99.90;;;;;;5079174;28;20543;-69
2021/10/22 10:31:42;;;;;;;21.50;4.47;;;12.10;99.90;;;;;;5084524;28;20047;-68
2021/10/22 10:34:30;;;;;;;15.27;3.85;;;11.70;99.90;;;;;;5089714;28;20469;-68
2021/10/22 10:36:59;;;;;;;14.57;3.50;;;11.60;99.90;;;;;;5094619;28;20396;-69
2021/10/22 10:39:50;;;;;;;19.02;3.92;;;11.50;99.90;;;;;;5092800;28;20458;-68
2021/10/22 10:42:19;;;;;;;11.70;3.20;;;11.30;99.90;;;;;;5088368;28;20107;-69
2021/10/22 10:44:46;;;;;;;13.32;3.58;;;11.60;99.90;;;;;;5086756;28;20461;-70
2021/10/22 10:50:06;;;;;;;9.73;3.25;;;12.10;99.90;;;;;;5085715;27;1144072;-69
2021/10/22 10:52:43;;;;;;;14.75;3.45;;;12.40;99.90;;;;;;5109511;28;20020;-69
2021/10/22 10:55:32;;;;;;;13.43;2.92;;;11.90;99.90;;;;;;5109364;28;20028;-69
2021/10/22 10:58:17;;;;;;;17.38;4.13;;;11.80;99.90;;;;;;5109535;28;20019;-69
2021/10/22 11:03:44;;;;;;;15.82;3.40;;;11.70;99.90;;;;;;5109344;27;20428;-70
2021/10/22 11:06:13;;;;;;;9.48;3.47;;;12.10;99.90;;;;;;5108651;28;20532;-69
2021/10/22 11:08:48;;;;;;;16.65;3.35;;;11.90;99.90;;;;;;5107755;28;20410;-69
2021/10/22 11:16:50;;;;;;;19.20;3.58;;;11.60;99.90;;;;;;5088004;28;20381;-69
2021/10/22 11:19:37;;;;;;;11.68;3.47;;;11.60;99.90;;;;;;5078707;28;20048;-70
2021/10/22 11:22:09;;;;;;;10.70;3.67;;;11.60;99.90;;;;;;5073806;28;20078;-69
2021/10/22 11:24:37;;;;;;;14.70;3.20;;;11.50;99.90;;;;;;5071123;28;20074;-70
2021/10/22 11:27:09;;;;;;;19.80;3.38;;;11.50;99.90;;;;;;5062752;28;20020;-68
2021/10/22 11:29:40;;;;;;;15.40;3.65;;;11.30;99.90;;;;;;5081060;28;20050;-69
2021/10/22 11:32:10;;;;;;;11.93;2.90;;;11.30;99.90;;;;;;5066760;28;20107;-69
2021/10/22 11:34:39;;;;;;;11.27;2.97;;;11.20;99.90;;;;;;5064793;28;20029;-69
2021/10/22 11:37:09;;;;;;;13.07;2.78;;;;;;;;;;5071470;28;20024;-68
2021/10/22 11:39:39;;;;;;;12.65;2.97;;;;;;;;;;5076332;28;20363;-68
2021/10/22 11:42:24;;;;;;;11.23;2.80;;;;;;;;;;5069478;28;20454;-69
2021/10/22 11:44:54;;;;;;;12.38;3.13;;;11.20;99.90;;;;;;5061925;28;20028;-69
2021/10/22 11:47:30;;;;;;;13.07;3.05;;;11.30;99.90;;;;;;5073266;28;20055;-68
2021/10/22 11:50:06;;;;;;;24.70;4.15;;;11.30;99.90;;;;;;5062637;28;20061;-68
2021/10/22 11:52:31;;;;;;;13.43;2.75;;;11.30;99.90;;;;;;5066190;28;20025;-69
2021/10/22 11:54:57;;;;;;;9.68;2.80;;;11.30;99.90;;;;;;5069681;28;20429;-68
2021/10/22 11:57:23;;;;;;;10.77;2.92;;;11.30;99.90;;;;;;5069359;28;20024;-69
2021/10/22 11:59:55;;;;;;;13.50;3.00;;;11.20;99.90;;;;;;5084360;28;20481;-69
2021/10/22 12:02:24;;;;;;;18.88;3.10;;;11.20;99.90;;;;;;5078573;28;20029;-69
2021/10/22 12:05:08;;;;;;;13.50;3.50;;;11.30;99.90;;;;;;5071405;28;20551;-69
2021/10/22 12:07:40;;;;;;;11.55;2.83;;;11.40;99.90;;;;;;5069241;28;20374;-69
2021/10/22 12:10:08;;;;;;;8.88;2.58;;;11.40;99.90;;;;;;5070330;28;20025;-69
2021/10/22 12:12:45;;;;;;;10.38;3.08;;;11.50;99.90;;;;;;5069626;28;20060;-69
2021/10/22 12:15:14;;;;;;;8.40;2.35;;;11.50;99.90;;;;;;5070894;28;20041;-69
2021/10/22 12:17:41;;;;;;;9.63;3.03;;;11.50;99.90;;;;;;5073947;28;20108;-69
2021/10/22 12:20:09;;;;;;;6.63;2.58;;;11.40;99.90;;;;;;5065644;28;20039;-68
2021/10/22 12:22:38;;;;;;;11.18;2.85;;;11.50;99.90;;;;;;5073136;28;20136;-69
2021/10/22 12:25:20;;;;;;;11.95;2.55;;;11.60;99.90;;;;;;5070026;28;20607;-69
2021/10/22 12:27:51;;;;;;;9.68;2.58;;;11.50;99.90;;;;;;5057196;28;20035;-69
2021/10/22 12:30:19;;;;;;;16.98;2.85;;;11.70;99.90;;;;;;5056569;28;20112;-69
2021/10/22 12:32:48;;;;;;;9.82;2.53;;;11.80;99.90;;;;;;5056240;28;20027;-69
2021/10/22 12:35:20;;;;;;;12.70;2.83;;;12.00;99.90;;;;;;5042514;28;20037;-70
2021/10/22 12:37:59;;;;;;;10.52;2.78;;;12.10;99.90;;;;;;5056496;28;20018;-69
2021/10/22 12:40:29;;;;;;;13.18;3.15;;;11.90;99.90;;;;;;5056495;28;20025;-69
2021/10/22 12:43:31;;;;;;;11.70;2.55;;;11.80;99.90;;;;;;5062783;28;20025;-69
2021/10/22 12:46:13;;;;;;;12.57;3.00;;;11.80;99.90;;;;;;5055423;28;20021;-68
2021/10/22 12:48:53;;;;;;;10.53;2.70;;;11.80;99.90;;;;;;5044140;28;20025;-69
2021/10/22 12:51:24;;;;;;;9.88;3.03;;;11.90;99.90;;;;;;5057578;28;20105;-69
2021/10/22 12:53:52;;;;;;;9.43;2.58;;;11.90;99.90;;;;;;5044357;28;20029;-69
2021/10/22 12:56:27;;;;;;;10.57;2.85;;;12.20;99.90;;;;;;5054533;28;20037;-69
2021/10/22 12:58:57;;;;;;;15.68;3.58;;;12.40;99.90;;;;;;5045543;28;20420;-69
2021/10/22 13:01:45;;;;;;;12.75;3.60;;;12.40;99.90;;;;;;5038050;28;20025;-70
2021/10/22 13:04:17;;;;;;;11.77;2.90;;;12.30;99.90;;;;;;5044165;28;20021;-70
2021/10/22 13:06:51;;;;;;;8.30;2.78;;;12.10;99.90;;;;;;5050941;28;20547;-70
2021/10/22 13:09:32;;;;;;;10.77;3.20;;;12.20;99.90;;;;;;5053647;28;20025;-70
2021/10/22 13:14:54;;;;;;;9.02;2.67;;;12.30;99.90;;;;;;5066400;28;20374;-69
2021/10/22 13:20:27;;;;;;;8.93;3.03;;;12.30;99.90;;;;;;5062235;28;20383;-69
2021/10/22 13:22:56;;;;;;;12.40;3.20;;;12.10;99.90;;;;;;5052376;28;20025;-70